createdAt,value
2022-08-17T00:01:51.795Z,21.48
2022-08-17T00:04:20.439Z,21.34
2022-08-17T00:06:49.295Z,21.36
2022-08-17T00:09:18.258Z,21.38
2022-08-17T00:12:41.996Z,21.27
2022-08-17T00:14:36.351Z,21.39
2022-08-17T00:17:04.836Z,21.40
2022-08-17T00:19:33.011Z,21.38
2022-08-17T00:22:31.004Z,21.33
2022-08-17T00:24:50.723Z,21.23
2022-08-17T00:27:18.829Z,21.22
2022-08-17T00:29:46.159Z,21.21
2022-08-17T00:33:14.033Z,21.30
2022-08-17T00:35:05.599Z,21.30
2022-08-17T00:37:32.844Z,21.21
2022-08-17T00:39:59.968Z,21.09
2022-08-17T00:42:30.898Z,21.07
2022-08-17T00:44:58.901Z,21.06
2022-08-17T00:47:26.599Z,20.98
2022-08-17T00:49:54.122Z,20.90
2022-08-17T00:52:24.822Z,20.82
2022-08-17T00:54:55.383Z,20.72
2022-08-17T00:57:31.349Z,20.74
2022-08-17T01:00:07.380Z,20.68
2022-08-17T01:02:42.559Z,20.74
2022-08-17T01:05:18.478Z,20.68
2022-08-17T01:07:47.944Z,20.54
2022-08-17T01:11:00.679Z,20.61
2022-08-17T01:13:04.594Z,20.65
2022-08-17T01:15:36.584Z,20.56
2022-08-17T01:18:07.897Z,20.64
2022-08-17T01:20:48.272Z,20.53
2022-08-17T01:23:20.791Z,20.44
2022-08-17T01:25:51.325Z,20.47
2022-08-17T01:28:52.954Z,20.39
2022-08-17T01:31:09.268Z,20.37
2022-08-17T01:33:36.733Z,20.33
2022-08-17T01:36:07.093Z,20.44
2022-08-17T01:38:35.356Z,20.44
2022-08-17T01:41:06.954Z,20.35
2022-08-17T01:43:47.655Z,20.40
2022-08-17T01:46:24.367Z,20.35
2022-08-17T01:48:51.692Z,20.20
2022-08-17T01:51:20.067Z,20.21
2022-08-17T01:53:58.400Z,20.29
2022-08-17T01:56:27.044Z,20.21
2022-08-17T01:58:54.412Z,20.18
2022-08-17T02:01:24.905Z,20.22
2022-08-17T02:03:59.766Z,20.26
2022-08-17T02:06:45.119Z,20.23
2022-08-17T02:09:24.001Z,20.25
2022-08-17T02:11:55.125Z,20.10
2022-08-17T02:14:24.877Z,20.12
2022-08-17T02:16:54.122Z,20.15
2022-08-17T02:19:22.039Z,20.05
2022-08-17T02:21:51.631Z,20.08
2022-08-17T02:24:59.328Z,20.15
2022-08-17T02:27:16.218Z,19.98
2022-08-17T02:29:43.306Z,19.89
2022-08-17T02:32:27.390Z,19.99
2022-08-17T02:34:59.681Z,19.83
2022-08-17T02:37:28.343Z,19.95
2022-08-17T02:39:57.311Z,19.89
2022-08-17T02:42:38.321Z,19.86
2022-08-17T02:45:16.075Z,20.07
2022-08-17T02:47:44.183Z,20.31
2022-08-17T02:50:13.812Z,20.18
2022-08-17T02:52:44.148Z,20.04
2022-08-17T02:55:17.110Z,20.33
2022-08-17T02:57:44.723Z,20.40
2022-08-17T03:00:19.756Z,20.35
2022-08-17T03:02:47.572Z,20.37
2022-08-17T03:05:17.582Z,20.35
2022-08-17T03:07:44.809Z,20.21
2022-08-17T03:10:13.015Z,20.18
2022-08-17T03:12:42.302Z,20.18
2022-08-17T03:15:16.848Z,20.29
2022-08-17T03:17:44.605Z,20.15
2022-08-17T03:20:12.821Z,20.26
2022-08-17T03:22:48.043Z,20.20
2022-08-17T03:25:26.706Z,20.13
2022-08-17T03:27:54.228Z,20.12
2022-08-17T03:30:22.697Z,20.15
2022-08-17T03:32:52.765Z,20.02
2022-08-17T03:35:26.696Z,20.09
2022-08-17T03:38:00.109Z,20.08
2022-08-17T03:40:39.875Z,20.19
2022-08-17T03:43:17.005Z,20.25
2022-08-17T03:46:02.472Z,20.37
2022-08-17T03:48:47.939Z,20.43
2022-08-17T03:51:39.569Z,20.35
2022-08-17T03:54:25.893Z,20.62
2022-08-17T03:57:17.099Z,20.70
2022-08-17T04:00:03.908Z,20.68
2022-08-17T04:02:39.470Z,20.68
2022-08-17T04:05:06.789Z,20.78
2022-08-17T04:07:33.892Z,20.74
2022-08-17T04:10:01.076Z,20.88
2022-08-17T04:12:32.044Z,21.16
2022-08-17T04:14:59.354Z,21.18
2022-08-17T04:17:28.929Z,21.18
2022-08-17T04:19:56.604Z,21.26
2022-08-17T04:22:30.461Z,21.36
2022-08-17T04:25:18.916Z,21.33
2022-08-17T04:27:45.982Z,21.37
2022-08-17T04:30:13.326Z,21.50
2022-08-17T04:33:09.952Z,21.30
2022-08-17T04:35:41.856Z,21.10
2022-08-17T04:38:12.140Z,21.22
2022-08-17T04:40:58.086Z,21.49
2022-08-17T04:43:27.154Z,21.53
2022-08-17T04:46:00.415Z,21.39
2022-08-17T04:48:49.129Z,21.39
2022-08-17T04:51:31.268Z,21.48
2022-08-17T04:54:02.372Z,21.53
2022-08-17T04:56:30.820Z,21.53
2022-08-17T04:59:02.624Z,21.62
2022-08-17T05:01:32.136Z,21.84
2022-08-17T05:04:32.835Z,21.70
2022-08-17T05:06:49.885Z,21.96
2022-08-17T05:09:17.957Z,22.05
2022-08-17T05:11:46.005Z,22.24
2022-08-17T05:14:14.457Z,22.47
2022-08-17T05:16:41.747Z,22.45
2022-08-17T05:19:08.804Z,22.61
2022-08-17T05:21:35.907Z,22.45
2022-08-17T05:24:06.082Z,22.18
2022-08-17T05:26:51.080Z,22.63
2022-08-17T05:29:18.932Z,22.59
2022-08-17T05:31:46.007Z,22.64
2022-08-17T05:34:13.139Z,22.81
2022-08-17T05:36:44.100Z,22.76
2022-08-17T05:39:15.790Z,22.77
2022-08-17T05:41:45.167Z,22.95
2022-08-17T05:44:12.204Z,22.70
2022-08-17T05:46:43.613Z,22.58
2022-08-17T05:49:13.596Z,22.87
2022-08-17T05:51:58.714Z,23.02
2022-08-17T05:54:51.782Z,23.33
2022-08-17T05:57:53.488Z,23.60
2022-08-17T06:00:37.542Z,23.63
2022-08-17T06:03:28.429Z,23.61
2022-08-17T06:06:09.161Z,23.59
2022-08-17T06:09:01.164Z,23.70
2022-08-17T06:11:47.098Z,23.93
2022-08-17T06:14:35.982Z,23.89
2022-08-17T06:17:08.838Z,23.99
2022-08-17T06:19:56.033Z,24.12
2022-08-17T06:22:28.923Z,24.08
2022-08-17T06:25:13.451Z,24.13
2022-08-17T06:28:04.867Z,24.39
2022-08-17T06:31:00.782Z,24.22
2022-08-17T06:33:35.435Z,24.35
2022-08-17T06:36:42.832Z,24.45
2022-08-17T06:39:37.492Z,24.72
2022-08-17T06:43:06.179Z,24.76
2022-08-17T06:45:16.555Z,25.02
2022-08-17T06:47:47.570Z,25.01
2022-08-17T06:50:31.432Z,25.05
2022-08-17T06:53:05.437Z,25.11
2022-08-17T06:55:55.259Z,25.41
2022-08-17T06:58:29.605Z,25.33
2022-08-17T07:01:01.735Z,25.41
2022-08-17T07:03:48.316Z,25.43
2022-08-17T07:06:27.595Z,25.47
2022-08-17T07:09:14.096Z,25.50
2022-08-17T07:11:48.412Z,25.60
2022-08-17T07:14:18.523Z,25.63
2022-08-17T07:16:54.990Z,25.76
2022-08-17T07:19:26.594Z,25.85
2022-08-17T07:22:14.113Z,26.06
2022-08-17T07:24:49.310Z,26.09
2022-08-17T07:27:22.413Z,26.42
2022-08-17T07:29:57.594Z,26.42
2022-08-17T07:32:31.836Z,26.64
2022-08-17T07:35:11.544Z,26.83
2022-08-17T07:37:41.379Z,26.88
2022-08-17T07:40:34.234Z,27.10
2022-08-17T07:43:23.380Z,27.07
2022-08-17T07:46:24.000Z,27.01
2022-08-17T07:48:52.610Z,27.19
2022-08-17T07:51:28.763Z,27.23
2022-08-17T07:54:13.638Z,27.41
2022-08-17T07:57:00.672Z,27.38
2022-08-17T07:59:41.242Z,27.30
2022-08-17T08:02:38.294Z,27.43
2022-08-17T08:05:29.928Z,27.26
2022-08-17T08:08:19.363Z,27.39
2022-08-17T08:10:59.300Z,27.36
2022-08-17T08:13:28.883Z,27.46
2022-08-17T08:16:24.433Z,27.67
2022-08-17T08:18:57.214Z,27.90
2022-08-17T08:21:47.940Z,28.06
2022-08-17T08:24:47.404Z,28.01
2022-08-17T08:28:11.809Z,27.53
2022-08-17T08:30:47.043Z,27.63
2022-08-17T08:33:20.240Z,27.59
2022-08-17T08:37:16.030Z,27.74
2022-08-17T08:39:48.482Z,27.75
2022-08-17T08:42:50.037Z,28.15
2022-08-17T08:45:32.285Z,27.73
2022-08-17T08:48:45.909Z,27.99
2022-08-17T08:51:32.465Z,28.22
2022-08-17T08:54:03.467Z,28.35
2022-08-17T08:56:33.099Z,28.42
2022-08-17T08:59:08.758Z,28.17
2022-08-17T09:01:57.138Z,28.33
2022-08-17T09:05:13.043Z,28.51
2022-08-17T09:07:33.713Z,28.56
2022-08-17T09:10:26.947Z,28.38
2022-08-17T09:13:16.883Z,28.36
2022-08-17T09:16:11.609Z,28.17
2022-08-17T09:18:59.983Z,28.22
2022-08-17T09:21:48.405Z,28.42
2022-08-17T09:24:29.428Z,28.47
2022-08-17T09:27:06.585Z,28.50
2022-08-17T09:29:38.054Z,28.47
2022-08-17T09:32:17.685Z,28.43
2022-08-17T09:34:55.352Z,28.22
2022-08-17T09:37:35.677Z,28.52
2022-08-17T09:40:25.971Z,28.66
2022-08-17T09:43:01.471Z,28.71
2022-08-17T09:45:28.454Z,28.62
2022-08-17T09:48:23.587Z,28.58
2022-08-17T09:51:04.749Z,28.44
2022-08-17T09:53:36.924Z,28.28
2022-08-17T09:56:13.108Z,28.23
2022-08-17T09:59:01.276Z,28.23
2022-08-17T10:01:35.583Z,28.38
2022-08-17T10:04:08.862Z,28.66
2022-08-17T10:07:08.218Z,28.61
2022-08-17T10:09:37.981Z,28.72
2022-08-17T10:12:17.781Z,28.92
2022-08-17T10:15:22.606Z,28.79
2022-08-17T10:18:08.626Z,28.72
2022-08-17T10:21:15.824Z,28.81
2022-08-17T10:24:03.461Z,28.62
2022-08-17T10:26:46.186Z,28.64
2022-08-17T10:29:50.820Z,28.53
2022-08-17T10:32:36.490Z,28.51
2022-08-17T10:35:29.308Z,28.74
2022-08-17T10:38:24.634Z,28.67
2022-08-17T10:41:00.487Z,28.50
2022-08-17T10:43:57.852Z,28.65
2022-08-17T10:46:49.577Z,28.87
2022-08-17T10:49:21.183Z,28.37
2022-08-17T10:52:00.161Z,28.45
2022-08-17T10:54:35.841Z,28.59
2022-08-17T10:57:22.933Z,28.78
2022-08-17T10:59:52.411Z,28.60
2022-08-17T11:02:19.500Z,28.71
2022-08-17T11:04:55.417Z,28.75
2022-08-17T11:07:34.294Z,28.74
2022-08-17T11:10:09.975Z,28.72
2022-08-17T11:13:01.384Z,28.80
2022-08-17T11:15:37.165Z,28.77
2022-08-17T11:18:13.942Z,28.69
2022-08-17T11:20:59.682Z,28.76
2022-08-17T11:23:57.941Z,28.81
2022-08-17T11:26:32.062Z,28.83
2022-08-17T11:29:16.920Z,28.81
2022-08-17T11:31:58.521Z,28.72
2022-08-17T11:34:28.951Z,28.83
2022-08-17T11:37:14.591Z,28.66
2022-08-17T11:39:44.454Z,28.59
2022-08-17T11:42:48.807Z,28.76
2022-08-17T11:45:46.122Z,28.66
2022-08-17T11:48:50.433Z,28.59
2022-08-17T11:51:35.333Z,28.78
2022-08-17T11:57:00.555Z,28.76
2022-08-17T11:59:33.347Z,28.74
2022-08-17T12:02:02.196Z,28.74
2022-08-17T12:04:34.935Z,28.74
2022-08-17T12:07:18.597Z,28.74
2022-08-17T12:09:49.381Z,28.83
2022-08-17T12:12:17.844Z,28.83
2022-08-17T12:15:11.491Z,28.81
2022-08-17T12:17:42.744Z,28.77
2022-08-17T12:20:27.941Z,28.71
2022-08-17T12:23:04.918Z,28.81
2022-08-17T12:25:41.989Z,28.83
2022-08-17T12:28:23.899Z,28.82
2022-08-17T12:30:52.114Z,28.71
2022-08-17T12:33:25.221Z,28.70
2022-08-17T12:36:03.310Z,28.70
2022-08-17T12:38:36.252Z,28.81
2022-08-17T12:41:25.485Z,28.77
2022-08-17T12:43:56.826Z,28.66
2022-08-17T12:46:23.881Z,28.54
2022-08-17T12:48:59.293Z,28.74
2022-08-17T12:51:29.269Z,28.70
2022-08-17T12:53:57.454Z,28.69
2022-08-17T12:56:24.767Z,28.82
2022-08-17T12:58:55.678Z,28.64
2022-08-17T13:01:25.507Z,28.65
2022-08-17T13:03:55.165Z,28.61
2022-08-17T13:06:37.844Z,28.66
2022-08-17T13:09:14.336Z,28.74
2022-08-17T13:11:56.741Z,28.67
2022-08-17T13:14:23.884Z,28.58
2022-08-17T13:17:02.011Z,28.66
2022-08-17T13:19:39.850Z,28.66
2022-08-17T13:22:12.642Z,28.68
2022-08-17T13:24:53.215Z,28.65
2022-08-17T13:27:22.811Z,28.69
2022-08-17T13:29:54.046Z,28.67
2022-08-17T13:32:23.306Z,28.78
2022-08-17T13:35:14.461Z,28.69
2022-08-17T13:37:57.834Z,28.74
2022-08-17T13:40:29.213Z,28.82
2022-08-17T13:42:57.417Z,28.75
2022-08-17T13:45:34.897Z,28.81
2022-08-17T13:48:13.533Z,28.78
2022-08-17T13:51:02.570Z,28.72
2022-08-17T13:53:36.915Z,28.71
2022-08-17T13:56:53.342Z,28.76
2022-08-17T13:59:53.552Z,28.86
2022-08-17T14:02:22.143Z,28.71
2022-08-17T14:04:49.297Z,28.71
2022-08-17T14:07:18.286Z,28.80
2022-08-17T14:10:10.456Z,28.71
2022-08-17T14:12:41.089Z,28.65
2022-08-17T14:15:09.474Z,28.69
2022-08-17T14:17:39.119Z,28.60
2022-08-17T14:20:12.256Z,28.57
2022-08-17T14:22:44.119Z,28.66
2022-08-17T14:25:14.037Z,28.63
2022-08-17T14:27:47.479Z,28.36
2022-08-17T14:30:29.058Z,28.54
2022-08-17T14:32:58.553Z,28.59
2022-08-17T14:35:27.924Z,28.54
2022-08-17T14:37:55.643Z,28.40
2022-08-17T14:40:25.067Z,28.46
2022-08-17T14:42:53.786Z,28.55
2022-08-17T14:45:32.370Z,28.52
2022-08-17T14:48:04.277Z,28.35
2022-08-17T14:50:32.137Z,28.42
2022-08-17T14:53:04.567Z,28.46
2022-08-17T14:55:32.652Z,28.44
2022-08-17T14:57:59.776Z,28.42
2022-08-17T15:00:27.283Z,28.51
2022-08-17T15:02:58.142Z,28.32
2022-08-17T15:05:31.601Z,28.33
2022-08-17T15:08:01.005Z,28.55
2022-08-17T15:10:29.381Z,28.61
2022-08-17T15:12:58.366Z,28.44
2022-08-17T15:15:26.027Z,28.46
2022-08-17T15:17:53.321Z,28.48
2022-08-17T15:20:28.119Z,28.45
2022-08-17T15:22:57.505Z,28.35
2022-08-17T15:25:27.606Z,28.30
2022-08-17T15:27:56.088Z,28.41
2022-08-17T15:30:24.576Z,28.40
2022-08-17T15:32:55.181Z,28.30
2022-08-17T15:35:28.352Z,28.29
2022-08-17T15:38:08.104Z,28.33
2022-08-17T15:40:41.846Z,28.41
2022-08-17T15:43:14.370Z,28.42
2022-08-17T15:45:41.945Z,28.38
2022-08-17T15:48:09.271Z,28.19
2022-08-17T15:50:37.364Z,28.27
2022-08-17T15:53:05.068Z,28.18
2022-08-17T15:55:33.246Z,28.19
2022-08-17T15:58:00.977Z,28.22
2022-08-17T16:00:29.537Z,28.15
2022-08-17T16:03:46.007Z,28.17
2022-08-17T16:05:47.899Z,27.98
2022-08-17T16:08:20.671Z,28.01
2022-08-17T16:10:49.399Z,27.91
2022-08-17T16:13:18.218Z,27.91
2022-08-17T16:15:56.633Z,27.95
2022-08-17T16:18:27.460Z,27.91
2022-08-17T16:20:55.129Z,27.87
2022-08-17T16:23:22.730Z,27.81
2022-08-17T16:25:53.797Z,27.84
2022-08-17T16:28:21.915Z,27.84
2022-08-17T16:30:49.237Z,27.78
2022-08-17T16:33:17.056Z,27.70
2022-08-17T16:35:44.249Z,27.51
2022-08-17T16:38:12.538Z,27.57
2022-08-17T16:40:40.566Z,27.55
2022-08-17T16:43:10.703Z,27.57
2022-08-17T16:45:40.555Z,27.49
2022-08-17T16:48:08.705Z,27.51
2022-08-17T16:50:37.113Z,27.44
2022-08-17T16:53:08.172Z,27.37
2022-08-17T16:55:35.842Z,27.22
2022-08-17T16:58:05.559Z,27.21
2022-08-17T17:00:34.115Z,27.20
2022-08-17T17:03:29.452Z,27.13
2022-08-17T17:06:13.691Z,27.07
2022-08-17T17:08:52.219Z,26.97
2022-08-17T17:11:34.502Z,26.95
2022-08-17T17:14:05.485Z,26.91
2022-08-17T17:17:08.839Z,26.85
2022-08-17T17:19:41.401Z,26.84
2022-08-17T17:22:23.699Z,26.74
2022-08-17T17:25:30.284Z,26.72
2022-08-17T17:28:22.520Z,26.74
2022-08-17T17:31:03.563Z,26.67
2022-08-17T17:33:50.292Z,26.70
2022-08-17T17:36:50.135Z,26.64
2022-08-17T17:39:22.135Z,26.58
2022-08-17T17:41:54.351Z,26.58
2022-08-17T17:44:37.932Z,26.55
2022-08-17T17:47:05.484Z,26.53
2022-08-17T17:49:41.586Z,26.48
2022-08-17T17:52:30.946Z,26.44
2022-08-17T17:54:57.950Z,26.44
2022-08-17T17:57:33.780Z,26.43
2022-08-17T18:00:06.716Z,26.32
2022-08-17T18:02:51.458Z,26.37
2022-08-17T18:05:44.552Z,26.37
2022-08-17T18:08:34.072Z,26.28
2022-08-17T18:11:14.083Z,26.34
2022-08-17T18:13:56.459Z,26.29
2022-08-17T18:16:24.229Z,26.27
2022-08-17T18:18:52.630Z,26.21
2022-08-17T18:21:23.685Z,26.14
2022-08-17T18:24:05.900Z,26.10
2022-08-17T18:26:33.039Z,26.02
2022-08-17T18:29:01.999Z,25.90
2022-08-17T18:31:29.427Z,25.96
2022-08-17T18:37:16.108Z,25.84
2022-08-17T18:39:46.766Z,25.85
2022-08-17T18:42:26.822Z,25.82
2022-08-17T18:44:55.438Z,25.82
2022-08-17T18:47:27.012Z,25.83
2022-08-17T18:49:58.152Z,25.73
2022-08-17T18:52:31.808Z,25.66
2022-08-17T18:55:13.368Z,25.73
2022-08-17T18:57:50.882Z,25.69
2022-08-17T19:00:30.152Z,25.62
2022-08-17T19:03:02.145Z,25.49
2022-08-17T19:05:29.279Z,25.56
2022-08-17T19:08:14.204Z,25.45
2022-08-17T19:10:46.524Z,25.42
2022-08-17T19:13:40.856Z,25.44
2022-08-17T19:16:31.270Z,25.40
2022-08-17T19:18:58.721Z,25.36
2022-08-17T19:21:36.164Z,25.23
2022-08-17T19:24:10.260Z,25.36
2022-08-17T19:26:54.600Z,25.32
2022-08-17T19:29:37.122Z,25.27
2022-08-17T19:32:06.692Z,25.19
2022-08-17T19:34:36.706Z,25.19
2022-08-17T19:37:32.596Z,25.16
2022-08-17T19:40:53.299Z,25.04
2022-08-17T19:43:30.718Z,25.03
2022-08-17T19:46:12.616Z,24.98
2022-08-17T19:48:56.445Z,24.99
2022-08-17T19:51:44.774Z,25.01
2022-08-17T19:54:44.884Z,25.01
2022-08-17T19:57:25.511Z,24.80
2022-08-17T20:00:06.950Z,24.81
2022-08-17T20:02:52.505Z,24.80
2022-08-17T20:05:19.500Z,24.76
2022-08-17T20:07:58.385Z,24.70
2022-08-17T20:10:38.845Z,24.74
2022-08-17T20:13:11.418Z,24.64
2022-08-17T20:15:42.555Z,24.66
2022-08-17T20:18:18.441Z,24.60
2022-08-17T20:20:59.131Z,24.57
2022-08-17T20:23:56.136Z,24.50
2022-08-17T20:26:35.100Z,24.50
2022-08-17T20:29:14.371Z,24.46
2022-08-17T20:31:55.589Z,24.41
2022-08-17T20:34:25.609Z,24.39
2022-08-17T20:37:20.090Z,24.49
2022-08-17T20:39:50.089Z,24.46
2022-08-17T20:42:20.154Z,24.42
2022-08-17T20:44:53.585Z,24.28
2022-08-17T20:47:29.445Z,24.28
2022-08-17T20:50:03.017Z,24.32
2022-08-17T20:52:45.935Z,24.35
2022-08-17T20:55:35.435Z,24.28
2022-08-17T20:58:17.154Z,24.17
2022-08-17T21:00:46.858Z,24.06
2022-08-17T21:03:47.633Z,24.02
2022-08-17T21:06:18.538Z,23.93
2022-08-17T21:08:54.494Z,23.93
2022-08-17T21:11:58.263Z,23.90
2022-08-17T21:14:33.184Z,23.90
2022-08-17T21:17:17.715Z,23.85
2022-08-17T21:20:14.612Z,23.84
2022-08-17T21:23:06.572Z,23.79
2022-08-17T21:25:57.867Z,23.78
2022-08-17T21:28:37.049Z,23.74
2022-08-17T21:31:34.346Z,23.72
2022-08-17T21:34:16.893Z,23.73
2022-08-17T21:36:47.159Z,23.71
2022-08-17T21:39:15.842Z,23.73
2022-08-17T21:41:55.751Z,23.67
2022-08-17T21:44:35.314Z,23.64
2022-08-17T21:47:24.301Z,23.54
2022-08-17T21:49:52.944Z,23.60
2022-08-17T21:52:23.867Z,23.60
2022-08-17T21:54:54.884Z,23.45
2022-08-17T21:57:27.635Z,23.53
2022-08-17T22:00:01.529Z,23.40
2022-08-17T22:02:36.508Z,23.26
2022-08-17T22:05:11.165Z,23.41
2022-08-17T22:07:44.401Z,23.41
2022-08-17T22:10:40.108Z,23.25
2022-08-17T22:13:16.991Z,23.26
2022-08-17T22:15:51.043Z,23.19
2022-08-17T22:18:27.753Z,23.08
2022-08-17T22:21:02.569Z,23.05
2022-08-17T22:24:01.383Z,23.08
2022-08-17T22:27:08.880Z,23.10
2022-08-17T22:29:58.130Z,22.95
2022-08-17T22:32:45.191Z,23.03
2022-08-17T22:35:32.858Z,22.97
2022-08-17T22:38:18.404Z,22.95
2022-08-17T22:40:49.845Z,22.92
2022-08-17T22:43:24.239Z,22.89
2022-08-17T22:45:56.180Z,22.86
2022-08-17T22:48:27.476Z,22.78
2022-08-17T22:51:12.817Z,22.71
2022-08-17T22:54:08.392Z,22.75
2022-08-17T22:57:11.760Z,22.75
2022-08-17T22:59:47.488Z,22.63
2022-08-17T23:02:16.983Z,22.64
2022-08-17T23:04:59.185Z,22.62
2022-08-17T23:07:26.228Z,22.52
2022-08-17T23:09:53.667Z,22.35
2022-08-17T23:12:26.479Z,22.21
2022-08-17T23:15:00.709Z,22.20
2022-08-17T23:17:31.912Z,22.26
2022-08-17T23:20:02.782Z,22.15
2022-08-17T23:22:33.081Z,22.14
2022-08-17T23:25:00.196Z,22.12
2022-08-17T23:27:29.409Z,22.16
2022-08-17T23:29:56.494Z,21.91
2022-08-17T23:32:24.885Z,21.83
2022-08-17T23:34:52.236Z,22.02
2022-08-17T23:37:19.977Z,22.07
2022-08-17T23:39:47.201Z,22.09
2022-08-17T23:42:21.793Z,22.03
2022-08-17T23:44:49.540Z,21.96
2022-08-17T23:47:16.623Z,21.82
2022-08-17T23:49:43.760Z,21.89
2022-08-17T23:52:16.523Z,21.86
2022-08-17T23:54:46.735Z,21.82
2022-08-17T23:57:17.090Z,21.84
2022-08-17T23:59:44.522Z,21.75
